sensor_id;sensor_type;location;lat;lon;timestamp;pressure;altitude;pressure_sealevel;temperature;humidity
38786;BME280;24535;45.508;12.252;2022-10-18T00:01:08;102780.16;;;19.42;66.70
38786;BME280;24535;45.508;12.252;2022-10-18T00:12:34;102767.88;;;19.14;67.91
38786;BME280;24535;45.508;12.252;2022-10-18T00:15:16;102758.72;;;19.05;68.91
38786;BME280;24535;45.508;12.252;2022-10-18T00:25:23;102753.78;;;18.86;68.52
38786;BME280;24535;45.508;12.252;2022-10-18T01:09:27;102718.41;;;19.21;68.33
38786;BME280;24535;45.508;12.252;2022-10-18T01:15:27;102724.69;;;19.33;68.66
38786;BME280;24535;45.508;12.252;2022-10-18T01:18:11;102711.53;;;19.30;68.49
38786;BME280;24535;45.508;12.252;2022-10-18T01:23:56;102703.91;;;19.36;68.73
38786;BME280;24535;45.508;12.252;2022-10-18T01:32:06;102717.91;;;19.40;69.17
38786;BME280;24535;45.508;12.252;2022-10-18T01:34:35;102706.81;;;19.33;68.91
38786;BME280;24535;45.508;12.252;2022-10-18T01:37:07;102708.53;;;19.34;68.19
38786;BME280;24535;45.508;12.252;2022-10-18T01:39:52;102707.75;;;19.32;68.28
38786;BME280;24535;45.508;12.252;2022-10-18T01:42:19;102701.69;;;19.30;68.51
38786;BME280;24535;45.508;12.252;2022-10-18T01:44:47;102700.41;;;19.23;67.67
38786;BME280;24535;45.508;12.252;2022-10-18T01:47:20;102702.16;;;19.11;67.67
38786;BME280;24535;45.508;12.252;2022-10-18T01:49:47;102694.69;;;19.03;67.96
38786;BME280;24535;45.508;12.252;2022-10-18T01:52:14;102697.34;;;19.03;68.43
38786;BME280;24535;45.508;12.252;2022-10-18T01:54:42;102695.56;;;19.04;68.50
38786;BME280;24535;45.508;12.252;2022-10-18T01:57:31;102695.97;;;19.11;69.26
38786;BME280;24535;45.508;12.252;2022-10-18T02:00:18;102695.53;;;19.17;68.30
38786;BME280;24535;45.508;12.252;2022-10-18T02:03:12;102697.66;;;19.12;67.28
38786;BME280;24535;45.508;12.252;2022-10-18T02:06:04;102698.31;;;19.02;67.43
38786;BME280;24535;45.508;12.252;2022-10-18T02:08:55;102697.13;;;19.07;69.10
38786;BME280;24535;45.508;12.252;2022-10-18T02:11:24;102694.91;;;19.13;68.36
38786;BME280;24535;45.508;12.252;2022-10-18T02:13:59;102695.53;;;19.17;68.32
38786;BME280;24535;45.508;12.252;2022-10-18T02:16:34;102694.34;;;19.21;68.29
38786;BME280;24535;45.508;12.252;2022-10-18T02:22:04;102690.63;;;19.11;67.22
38786;BME280;24535;45.508;12.252;2022-10-18T02:24:34;102693.19;;;18.99;66.52
38786;BME280;24535;45.508;12.252;2022-10-18T02:27:02;102688.72;;;18.87;66.76
38786;BME280;24535;45.508;12.252;2022-10-18T02:29:30;102694.59;;;18.80;66.80
38786;BME280;24535;45.508;12.252;2022-10-18T02:34:45;102691.50;;;18.60;67.49
38786;BME280;24535;45.508;12.252;2022-10-18T02:37:18;102695.44;;;18.54;67.53
38786;BME280;24535;45.508;12.252;2022-10-18T02:39:48;102690.75;;;18.58;68.03
38786;BME280;24535;45.508;12.252;2022-10-18T02:42:15;102691.19;;;18.65;68.04
38786;BME280;24535;45.508;12.252;2022-10-18T02:44:41;102692.22;;;18.62;67.55
38786;BME280;24535;45.508;12.252;2022-10-18T02:47:08;102689.56;;;18.62;67.48
38786;BME280;24535;45.508;12.252;2022-10-18T02:49:37;102684.22;;;18.62;67.43
38786;BME280;24535;45.508;12.252;2022-10-18T02:52:10;102688.38;;;18.66;67.70
38786;BME280;24535;45.508;12.252;2022-10-18T02:54:41;102683.81;;;18.68;66.86
38786;BME280;24535;45.508;12.252;2022-10-18T02:57:06;102690.31;;;18.64;66.81
38786;BME280;24535;45.508;12.252;2022-10-18T02:59:35;102683.69;;;18.57;66.49
38786;BME280;24535;45.508;12.252;2022-10-18T03:02:01;102690.94;;;18.55;67.05
38786;BME280;24535;45.508;12.252;2022-10-18T03:04:26;102690.41;;;18.50;66.72
38786;BME280;24535;45.508;12.252;2022-10-18T03:06:59;102688.06;;;18.45;66.56
38786;BME280;24535;45.508;12.252;2022-10-18T03:09:24;102690.09;;;18.42;67.40
38786;BME280;24535;45.508;12.252;2022-10-18T03:11:50;102691.19;;;18.39;67.29
38786;BME280;24535;45.508;12.252;2022-10-18T03:14:21;102689.56;;;18.37;68.40
38786;BME280;24535;45.508;12.252;2022-10-18T03:16:49;102686.91;;;18.37;68.16
38786;BME280;24535;45.508;12.252;2022-10-18T03:19:14;102683.69;;;18.32;68.83
38786;BME280;24535;45.508;12.252;2022-10-18T03:21:40;102677.91;;;18.25;68.42
38786;BME280;24535;45.508;12.252;2022-10-18T03:24:05;102684.31;;;18.22;68.71
38786;BME280;24535;45.508;12.252;2022-10-18T03:26:34;102696.47;;;18.26;69.07
38786;BME280;24535;45.508;12.252;2022-10-18T03:29:04;102683.38;;;18.23;68.97
38786;BME280;24535;45.508;12.252;2022-10-18T03:31:32;102679.06;;;18.21;69.13
38786;BME280;24535;45.508;12.252;2022-10-18T03:33:58;102682.91;;;18.17;69.04
38786;BME280;24535;45.508;12.252;2022-10-18T03:36:23;102688.44;;;18.14;69.39
38786;BME280;24535;45.508;12.252;2022-10-18T03:38:49;102682.47;;;18.10;69.48
38786;BME280;24535;45.508;12.252;2022-10-18T03:41:14;102688.75;;;18.09;70.08
38786;BME280;24535;45.508;12.252;2022-10-18T03:43:40;102688.03;;;18.07;69.59
38786;BME280;24535;45.508;12.252;2022-10-18T03:46:05;102690.13;;;18.02;70.23
38786;BME280;24535;45.508;12.252;2022-10-18T03:48:31;102686.53;;;18.03;70.94
38786;BME280;24535;45.508;12.252;2022-10-18T03:50:56;102686.53;;;18.03;70.89
38786;BME280;24535;45.508;12.252;2022-10-18T03:53:22;102682.78;;;18.06;70.68
38786;BME280;24535;45.508;12.252;2022-10-18T03:55:51;102681.63;;;18.10;70.74
38786;BME280;24535;45.508;12.252;2022-10-18T03:58:17;102679.78;;;18.10;70.97
38786;BME280;24535;45.508;12.252;2022-10-18T04:00:43;102683.13;;;18.14;70.98
38786;BME280;24535;45.508;12.252;2022-10-18T04:03:08;102687.47;;;18.15;70.95
38786;BME280;24535;45.508;12.252;2022-10-18T04:05:34;102679.47;;;18.15;70.96
38786;BME280;24535;45.508;12.252;2022-10-18T04:08:01;102689.88;;;18.19;71.31
38786;BME280;24535;45.508;12.252;2022-10-18T04:10:26;102683.88;;;18.16;70.56
38786;BME280;24535;45.508;12.252;2022-10-18T04:12:52;102686.44;;;18.17;70.95
38786;BME280;24535;45.508;12.252;2022-10-18T04:15:17;102680.25;;;18.17;70.55
38786;BME280;24535;45.508;12.252;2022-10-18T04:17:43;102680.97;;;18.19;71.13
38786;BME280;24535;45.508;12.252;2022-10-18T04:20:08;102683.88;;;18.16;70.54
38786;BME280;24535;45.508;12.252;2022-10-18T04:22:34;102683.97;;;18.14;70.29
38786;BME280;24535;45.508;12.252;2022-10-18T04:24:59;102668.06;;;18.13;70.13
38786;BME280;24535;45.508;12.252;2022-10-18T04:27:28;102673.09;;;18.17;71.26
38786;BME280;24535;45.508;12.252;2022-10-18T04:29:53;102672.38;;;18.28;71.12
38786;BME280;24535;45.508;12.252;2022-10-18T04:32:18;102677.28;;;18.34;70.77
38786;BME280;24535;45.508;12.252;2022-10-18T04:34:44;102671.63;;;18.39;70.36
38786;BME280;24535;45.508;12.252;2022-10-18T04:37:09;102675.91;;;18.41;69.76
38786;BME280;24535;45.508;12.252;2022-10-18T04:39:35;102673.22;;;18.41;69.82
38786;BME280;24535;45.508;12.252;2022-10-18T04:42:01;102670.25;;;18.46;69.66
38786;BME280;24535;45.508;12.252;2022-10-18T04:44:26;102677.41;;;18.45;70.01
38786;BME280;24535;45.508;12.252;2022-10-18T04:46:52;102670.34;;;18.44;69.87
38786;BME280;24535;45.508;12.252;2022-10-18T04:49:17;102676.00;;;18.52;70.34
38786;BME280;24535;45.508;12.252;2022-10-18T04:51:46;102682.41;;;18.63;70.47
38786;BME280;24535;45.508;12.252;2022-10-18T04:54:17;102673.56;;;18.75;69.99
38786;BME280;24535;45.508;12.252;2022-10-18T04:56:46;102665.00;;;18.83;69.65
38786;BME280;24535;45.508;12.252;2022-10-18T04:59:11;102665.44;;;18.89;69.64
38786;BME280;24535;45.508;12.252;2022-10-18T05:01:37;102660.28;;;18.99;69.48
38786;BME280;24535;45.508;12.252;2022-10-18T05:04:08;102673.84;;;19.09;68.89
38786;BME280;24535;45.508;12.252;2022-10-18T05:06:36;102667.97;;;19.16;68.48
38786;BME280;24535;45.508;12.252;2022-10-18T05:09:01;102665.88;;;19.20;68.17
38786;BME280;24535;45.508;12.252;2022-10-18T05:11:30;102661.72;;;19.16;67.72
38786;BME280;24535;45.508;12.252;2022-10-18T05:13:55;102652.47;;;19.09;67.79
38786;BME280;24535;45.508;12.252;2022-10-18T05:16:20;102662.19;;;19.10;68.25
38786;BME280;24535;45.508;12.252;2022-10-18T05:18:46;102665.50;;;19.13;67.98
38786;BME280;24535;45.508;12.252;2022-10-18T05:21:11;102667.31;;;19.13;67.43
38786;BME280;24535;45.508;12.252;2022-10-18T05:23:37;102668.81;;;19.17;67.74
38786;BME280;24535;45.508;12.252;2022-10-18T05:26:05;102670.72;;;19.15;66.79
38786;BME280;24535;45.508;12.252;2022-10-18T05:28:34;102671.28;;;19.07;66.94
38786;BME280;24535;45.508;12.252;2022-10-18T05:31:00;102666.06;;;19.06;66.77
38786;BME280;24535;45.508;12.252;2022-10-18T05:33:30;102665.41;;;19.02;66.66
38786;BME280;24535;45.508;12.252;2022-10-18T05:35:55;102662.44;;;18.94;66.29
38786;BME280;24535;45.508;12.252;2022-10-18T05:38:21;102666.28;;;18.90;66.82
38786;BME280;24535;45.508;12.252;2022-10-18T05:40:49;102668.00;;;18.91;67.82
38786;BME280;24535;45.508;12.252;2022-10-18T05:43:14;102668.31;;;18.99;67.54
38786;BME280;24535;45.508;12.252;2022-10-18T05:45:47;102666.19;;;19.04;67.30
38786;BME280;24535;45.508;12.252;2022-10-18T05:48:17;102666.19;;;19.04;66.73
38786;BME280;24535;45.508;12.252;2022-10-18T05:50:44;102665.22;;;19.05;67.30
38786;BME280;24535;45.508;12.252;2022-10-18T05:53:13;102666.25;;;19.02;66.14
38786;BME280;24535;45.508;12.252;2022-10-18T05:55:41;102660.09;;;18.89;65.69
38786;BME280;24535;45.508;12.252;2022-10-18T05:58:07;102657.13;;;18.81;66.03
38786;BME280;24535;45.508;12.252;2022-10-18T06:00:32;102658.72;;;18.71;65.93
38786;BME280;24535;45.508;12.252;2022-10-18T06:02:58;102661.03;;;18.63;66.40
38786;BME280;24535;45.508;12.252;2022-10-18T06:05:23;102665.34;;;18.52;66.62
38786;BME280;24535;45.508;12.252;2022-10-18T06:07:49;102658.59;;;18.47;66.69
38786;BME280;24535;45.508;12.252;2022-10-18T06:10:14;102670.03;;;18.49;67.29
38786;BME280;24535;45.508;12.252;2022-10-18T06:12:40;102664.81;;;18.47;67.95
38786;BME280;24535;45.508;12.252;2022-10-18T06:15:08;102673.34;;;18.52;67.11
38786;BME280;24535;45.508;12.252;2022-10-18T06:17:34;102667.25;;;18.50;67.45
38786;BME280;24535;45.508;12.252;2022-10-18T06:20:03;102679.75;;;18.50;67.30
38786;BME280;24535;45.508;12.252;2022-10-18T06:22:28;102680.06;;;18.45;66.92
38786;BME280;24535;45.508;12.252;2022-10-18T06:24:54;102670.13;;;18.35;67.23
38786;BME280;24535;45.508;12.252;2022-10-18T06:27:19;102683.69;;;18.32;67.46
38786;BME280;24535;45.508;12.252;2022-10-18T06:30:05;102683.78;;;18.30;67.68
38786;BME280;24535;45.508;12.252;2022-10-18T06:32:31;102687.09;;;18.34;67.92
38786;BME280;24535;45.508;12.252;2022-10-18T06:35:03;102690.75;;;18.45;68.76
38786;BME280;24535;45.508;12.252;2022-10-18T06:37:28;102687.00;;;18.48;68.04
38786;BME280;24535;45.508;12.252;2022-10-18T06:40:32;102692.13;;;18.51;67.59
38786;BME280;24535;45.508;12.252;2022-10-18T06:43:26;102691.38;;;18.49;67.75
38786;BME280;24535;45.508;12.252;2022-10-18T06:45:52;102696.28;;;18.42;67.38
38786;BME280;24535;45.508;12.252;2022-10-18T06:48:37;102698.94;;;18.42;67.77
38786;BME280;24535;45.508;12.252;2022-10-18T06:51:31;102704.28;;;18.42;67.84
38786;BME280;24535;45.508;12.252;2022-10-18T06:53:57;102711.56;;;18.40;67.82
38786;BME280;24535;45.508;12.252;2022-10-18T06:59:30;102714.56;;;18.48;68.96
38786;BME280;24535;45.508;12.252;2022-10-18T07:14:52;102716.84;;;18.93;67.28
38786;BME280;24535;45.508;12.252;2022-10-18T07:17:17;102715.44;;;18.87;67.39
38786;BME280;24535;45.508;12.252;2022-10-18T07:19:43;102712.03;;;18.85;67.13
38786;BME280;24535;45.508;12.252;2022-10-18T07:22:08;102717.91;;;18.77;67.21
38786;BME280;24535;45.508;12.252;2022-10-18T07:24:33;102726.75;;;18.78;67.51
38786;BME280;24535;45.508;12.252;2022-10-18T07:26:59;102723.97;;;18.80;67.51
38786;BME280;24535;45.508;12.252;2022-10-18T07:29:24;102717.13;;;18.75;67.82
38786;BME280;24535;45.508;12.252;2022-10-18T07:31:50;102721.09;;;18.83;68.23
38786;BME280;24535;45.508;12.252;2022-10-18T07:34:15;102723.44;;;18.87;68.28
38786;BME280;24535;45.508;12.252;2022-10-18T07:36:40;102731.47;;;18.87;68.33
38786;BME280;24535;45.508;12.252;2022-10-18T07:39:06;102730.81;;;18.84;67.89
38786;BME280;24535;45.508;12.252;2022-10-18T07:46:42;102720.56;;;18.90;68.61
38786;BME280;24535;45.508;12.252;2022-10-18T07:49:07;102717.78;;;18.92;68.27
38786;BME280;24535;45.508;12.252;2022-10-18T07:51:39;102720.44;;;18.92;67.98
38786;BME280;24535;45.508;12.252;2022-10-18T07:54:04;102724.22;;;18.89;68.23
38786;BME280;24535;45.508;12.252;2022-10-18T07:56:35;102721.84;;;18.85;68.44
38786;BME280;24535;45.508;12.252;2022-10-18T07:59:00;102727.09;;;18.86;68.54
38786;BME280;24535;45.508;12.252;2022-10-18T08:01:26;102719.59;;;18.91;68.69
38786;BME280;24535;45.508;12.252;2022-10-18T08:03:52;102714.91;;;18.95;68.12
38786;BME280;24535;45.508;12.252;2022-10-18T08:06:18;102714.81;;;18.96;68.95
38786;BME280;24535;45.508;12.252;2022-10-18T08:08:45;102720.53;;;19.03;69.13
38786;BME280;24535;45.508;12.252;2022-10-18T08:11:14;102719.28;;;19.09;68.47
38786;BME280;24535;45.508;12.252;2022-10-18T08:13:39;102726.84;;;19.15;68.63
38786;BME280;24535;45.508;12.252;2022-10-18T08:16:07;102719.59;;;19.17;68.77
38786;BME280;24535;45.508;12.252;2022-10-18T08:18:34;102718.16;;;19.24;68.48
38786;BME280;24535;45.508;12.252;2022-10-18T08:21:00;102713.22;;;19.31;68.38
38786;BME280;24535;45.508;12.252;2022-10-18T08:23:26;102722.00;;;19.33;68.34
38786;BME280;24535;45.508;12.252;2022-10-18T08:25:52;102711.06;;;19.36;68.17
38786;BME280;24535;45.508;12.252;2022-10-18T08:28:17;102714.28;;;19.41;68.41
38786;BME280;24535;45.508;12.252;2022-10-18T08:30:43;102707.50;;;19.48;68.72
38786;BME280;24535;45.508;12.252;2022-10-18T08:33:08;102704.81;;;19.61;68.38
38786;BME280;24535;45.508;12.252;2022-10-18T08:35:34;102701.97;;;19.75;68.12
38786;BME280;24535;45.508;12.252;2022-10-18T08:37:59;102695.50;;;19.90;67.98
38786;BME280;24535;45.508;12.252;2022-10-18T08:40:25;102691.03;;;20.02;67.55
38786;BME280;24535;45.508;12.252;2022-10-18T08:45:42;102693.81;;;20.36;67.00
38786;BME280;24535;45.508;12.252;2022-10-18T08:48:34;102702.16;;;20.55;66.45
38786;BME280;24535;45.508;12.252;2022-10-18T08:51:04;102694.25;;;20.65;66.54
38786;BME280;24535;45.508;12.252;2022-10-18T08:53:39;102692.03;;;20.70;65.84
38786;BME280;24535;45.508;12.252;2022-10-18T08:56:10;102694.97;;;20.78;66.20
38786;BME280;24535;45.508;12.252;2022-10-18T08:58:42;102692.66;;;20.85;65.83
38786;BME280;24535;45.508;12.252;2022-10-18T09:18:25;102671.72;;;21.12;65.39
38786;BME280;24535;45.508;12.252;2022-10-18T09:20:58;102667.28;;;21.22;65.96
38786;BME280;24535;45.508;12.252;2022-10-18T09:26:20;102664.66;;;21.66;66.10
38786;BME280;24535;45.508;12.252;2022-10-18T09:29:05;102664.44;;;21.90;65.65
38786;BME280;24535;45.508;12.252;2022-10-18T09:37:17;102665.38;;;22.73;64.14
38786;BME280;24535;45.508;12.252;2022-10-18T09:39:43;102660.16;;;23.02;63.57
38786;BME280;24535;45.508;12.252;2022-10-18T09:42:17;102667.88;;;23.26;62.46
38786;BME280;24535;45.508;12.252;2022-10-18T09:44:54;102663.34;;;23.45;61.54
38786;BME280;24535;45.508;12.252;2022-10-18T09:47:29;102672.44;;;23.64;61.05
38786;BME280;24535;45.508;12.252;2022-10-18T09:50:00;102659.88;;;23.74;61.08
38786;BME280;24535;45.508;12.252;2022-10-18T09:52:41;102666.53;;;23.80;60.82
38786;BME280;24535;45.508;12.252;2022-10-18T09:55:18;102661.72;;;23.83;59.39
38786;BME280;24535;45.508;12.252;2022-10-18T09:57:49;102650.78;;;23.85;60.32
38786;BME280;24535;45.508;12.252;2022-10-18T10:00:22;102652.34;;;23.87;60.16
38786;BME280;24535;45.508;12.252;2022-10-18T10:02:48;102656.72;;;23.88;60.30
38786;BME280;24535;45.508;12.252;2022-10-18T10:05:17;102650.06;;;23.92;60.04
38786;BME280;24535;45.508;12.252;2022-10-18T10:07:45;102652.34;;;23.97;60.07
38786;BME280;24535;45.508;12.252;2022-10-18T10:10:20;102659.00;;;24.03;60.00
38786;BME280;24535;45.508;12.252;2022-10-18T10:12:48;102655.03;;;24.07;59.62
38786;BME280;24535;45.508;12.252;2022-10-18T10:15:29;102645.09;;;24.07;58.81
38786;BME280;24535;45.508;12.252;2022-10-18T10:18:00;102648.75;;;24.06;58.99
38786;BME280;24535;45.508;12.252;2022-10-18T10:20:33;102645.78;;;24.09;58.57
38786;BME280;24535;45.508;12.252;2022-10-18T10:23:15;102637.72;;;24.09;57.69
38786;BME280;24535;45.508;12.252;2022-10-18T10:25:52;102638.88;;;24.07;57.43
38786;BME280;24535;45.508;12.252;2022-10-18T10:28:34;102639.28;;;24.02;57.71
38786;BME280;24535;45.508;12.252;2022-10-18T10:31:36;102639.72;;;23.98;57.44
38786;BME280;24535;45.508;12.252;2022-10-18T10:34:17;102629.94;;;23.97;58.24
38786;BME280;24535;45.508;12.252;2022-10-18T10:36:53;102630.94;;;23.96;58.35
38786;BME280;24535;45.508;12.252;2022-10-18T10:39:29;102624.16;;;23.91;58.16
38786;BME280;24535;45.508;12.252;2022-10-18T10:41:57;102624.00;;;23.93;58.21
38786;BME280;24535;45.508;12.252;2022-10-18T10:44:25;102623.31;;;23.91;57.82
38786;BME280;24535;45.508;12.252;2022-10-18T10:46:52;102625.16;;;23.90;57.79
38786;BME280;24535;45.508;12.252;2022-10-18T10:49:25;102620.03;;;23.87;58.05
38786;BME280;24535;45.508;12.252;2022-10-18T10:52:03;102618.47;;;23.85;57.83
38786;BME280;24535;45.508;12.252;2022-10-18T10:54:30;102614.09;;;23.84;58.20
38786;BME280;24535;45.508;12.252;2022-10-18T10:57:04;102607.88;;;23.83;58.21
38786;BME280;24535;45.508;12.252;2022-10-18T10:59:56;102608.16;;;23.80;58.13
38786;BME280;24535;45.508;12.252;2022-10-18T11:02:32;102601.06;;;23.79;58.28
38786;BME280;24535;45.508;12.252;2022-10-18T11:05:22;102601.75;;;23.81;57.68
38786;BME280;24535;45.508;12.252;2022-10-18T11:07:50;102594.13;;;23.77;58.13
38786;BME280;24535;45.508;12.252;2022-10-18T11:10:20;102581.81;;;23.74;58.41
38786;BME280;24535;45.508;12.252;2022-10-18T11:13:18;102580.81;;;23.75;58.30
38786;BME280;24535;45.508;12.252;2022-10-18T11:16:24;102577.41;;;23.73;58.30
38786;BME280;24535;45.508;12.252;2022-10-18T11:18:52;102582.09;;;23.71;58.07
38786;BME280;24535;45.508;12.252;2022-10-18T11:21:24;102570.75;;;23.67;58.51
38786;BME280;24535;45.508;12.252;2022-10-18T11:23:51;102562.84;;;23.66;59.15
38786;BME280;24535;45.508;12.252;2022-10-18T11:29:08;102556.47;;;23.67;59.13
38786;BME280;24535;45.508;12.252;2022-10-18T11:32:10;102549.09;;;23.69;59.23
38786;BME280;24535;45.508;12.252;2022-10-18T11:35:03;102546.38;;;23.69;59.22
38786;BME280;24535;45.508;12.252;2022-10-18T11:59:59;102502.03;;;23.73;59.14
38786;BME280;24535;45.508;12.252;2022-10-18T12:02:36;102505.72;;;23.72;59.36
38786;BME280;24535;45.508;12.252;2022-10-18T12:05:06;102497.81;;;23.71;59.22
38786;BME280;24535;45.508;12.252;2022-10-18T12:07:35;102493.28;;;23.71;59.26
38786;BME280;24535;45.508;12.252;2022-10-18T12:10:06;102494.13;;;23.72;59.43
38786;BME280;24535;45.508;12.252;2022-10-18T12:12:44;102485.34;;;23.69;59.34
38786;BME280;24535;45.508;12.252;2022-10-18T12:15:22;102480.81;;;23.70;59.00
38786;BME280;24535;45.508;12.252;2022-10-18T12:18:00;102479.94;;;23.69;59.37
38786;BME280;24535;45.508;12.252;2022-10-18T12:20:34;102476.28;;;23.71;59.63
38786;BME280;24535;45.508;12.252;2022-10-18T12:23:15;102473.44;;;23.72;59.59
38786;BME280;24535;45.508;12.252;2022-10-18T12:25:45;102466.22;;;23.73;59.07
38786;BME280;24535;45.508;12.252;2022-10-18T12:33:26;102453.59;;;23.73;59.79
38786;BME280;24535;45.508;12.252;2022-10-18T12:38:32;102447.25;;;23.74;59.75
38786;BME280;24535;45.508;12.252;2022-10-18T12:40:59;102446.25;;;23.75;59.35
38786;BME280;24535;45.508;12.252;2022-10-18T12:43:30;102431.78;;;23.76;59.32
38786;BME280;24535;45.508;12.252;2022-10-18T12:46:05;102432.91;;;23.74;59.44
38786;BME280;24535;45.508;12.252;2022-10-18T12:48:36;102434.75;;;23.73;59.53
38786;BME280;24535;45.508;12.252;2022-10-18T12:51:24;102430.22;;;23.74;59.43
38786;BME280;24535;45.508;12.252;2022-10-18T13:09:39;102406.16;;;23.72;59.50
38786;BME280;24535;45.508;12.252;2022-10-18T13:15:05;102403.16;;;23.75;59.28
38786;BME280;24535;45.508;12.252;2022-10-18T13:28:38;102398.34;;;23.79;59.11
38786;BME280;24535;45.508;12.252;2022-10-18T13:31:33;102394.81;;;23.78;59.08
38786;BME280;24535;45.508;12.252;2022-10-18T13:34:31;102383.16;;;23.78;58.96
38786;BME280;24535;45.508;12.252;2022-10-18T13:37:19;102383.31;;;23.76;59.06
38786;BME280;24535;45.508;12.252;2022-10-18T13:39:48;102378.66;;;23.78;59.00
38786;BME280;24535;45.508;12.252;2022-10-18T13:42:17;102372.28;;;23.79;58.87
38786;BME280;24535;45.508;12.252;2022-10-18T13:44:43;102368.03;;;23.77;58.73
38786;BME280;24535;45.508;12.252;2022-10-18T13:47:31;102369.72;;;23.78;58.75
38786;BME280;24535;45.508;12.252;2022-10-18T13:55:44;102364.31;;;23.78;58.41
38786;BME280;24535;45.508;12.252;2022-10-18T14:04:33;102369.47;;;23.71;58.04
38786;BME280;24535;45.508;12.252;2022-10-18T14:07:05;102361.69;;;23.68;58.39
38786;BME280;24535;45.508;12.252;2022-10-18T14:09:43;102362.94;;;23.74;58.10
38786;BME280;24535;45.508;12.252;2022-10-18T14:15:01;102374.56;;;23.74;57.66
38786;BME280;24535;45.508;12.252;2022-10-18T14:17:43;102358.72;;;23.71;57.75
38786;BME280;24535;45.508;12.252;2022-10-18T14:20:42;102372.84;;;23.73;57.53
38786;BME280;24535;45.508;12.252;2022-10-18T14:23:18;102377.69;;;23.69;57.63
38786;BME280;24535;45.508;12.252;2022-10-18T14:25:48;102375.16;;;23.68;57.32
38786;BME280;24535;45.508;12.252;2022-10-18T14:33:31;102356.31;;;23.68;57.43
38786;BME280;24535;45.508;12.252;2022-10-18T14:38:48;102366.41;;;23.66;57.82
38786;BME280;24535;45.508;12.252;2022-10-18T14:41:28;102367.25;;;23.66;57.80
38786;BME280;24535;45.508;12.252;2022-10-18T14:44:17;102362.69;;;23.67;57.30
38786;BME280;24535;45.508;12.252;2022-10-18T14:52:05;102357.03;;;23.70;57.46
38786;BME280;24535;45.508;12.252;2022-10-18T15:01:17;102336.03;;;23.64;57.72
38786;BME280;24535;45.508;12.252;2022-10-18T15:03:43;102340.41;;;23.65;57.34
38786;BME280;24535;45.508;12.252;2022-10-18T15:06:18;102342.28;;;23.64;57.53
38786;BME280;24535;45.508;12.252;2022-10-18T15:09:21;102330.09;;;23.60;57.39
38786;BME280;24535;45.508;12.252;2022-10-18T15:11:50;102344.28;;;23.62;57.29
38786;BME280;24535;45.508;12.252;2022-10-18T15:14:35;102340.88;;;23.60;57.14
38786;BME280;24535;45.508;12.252;2022-10-18T15:20:28;102336.50;;;23.59;57.22
38786;BME280;24535;45.508;12.252;2022-10-18T15:23:22;102336.66;;;23.58;57.20
38786;BME280;24535;45.508;12.252;2022-10-18T15:25:49;102332.25;;;23.57;57.26
38786;BME280;24535;45.508;12.252;2022-10-18T15:28:42;102336.94;;;23.55;57.14
38786;BME280;24535;45.508;12.252;2022-10-18T15:31:50;102333.53;;;23.53;57.41
38786;BME280;24535;45.508;12.252;2022-10-18T15:34:25;102332.84;;;23.51;57.56
38786;BME280;24535;45.508;12.252;2022-10-18T15:37:34;102338.25;;;23.51;57.40
38786;BME280;24535;45.508;12.252;2022-10-18T15:54:37;102333.03;;;23.39;57.79
38786;BME280;24535;45.508;12.252;2022-10-18T16:07:10;102323.16;;;23.30;57.74
38786;BME280;24535;45.508;12.252;2022-10-18T16:09:36;102319.09;;;23.26;57.64
38786;BME280;24535;45.508;12.252;2022-10-18T16:17:51;102329.28;;;23.23;58.35
38786;BME280;24535;45.508;12.252;2022-10-18T16:23:26;102315.84;;;23.13;58.19
38786;BME280;24535;45.508;12.252;2022-10-18T16:29:46;102342.03;;;23.11;59.03
38786;BME280;24535;45.508;12.252;2022-10-18T16:39:47;102333.44;;;22.98;59.74
38786;BME280;24535;45.508;12.252;2022-10-18T16:42:12;102337.56;;;22.92;59.90
38786;BME280;24535;45.508;12.252;2022-10-18T16:44:38;102325.22;;;22.89;60.21
38786;BME280;24535;45.508;12.252;2022-10-18T16:47:03;102341.34;;;22.89;60.31
38786;BME280;24535;45.508;12.252;2022-10-18T16:49:28;102344.16;;;22.88;60.85
38786;BME280;24535;45.508;12.252;2022-10-18T16:52:00;102340.63;;;22.87;61.42
38786;BME280;24535;45.508;12.252;2022-10-18T16:54:25;102334.13;;;22.80;60.96
38786;BME280;24535;45.508;12.252;2022-10-18T16:57:31;102338.53;;;22.81;61.21
38786;BME280;24535;45.508;12.252;2022-10-18T17:00:18;102335.41;;;22.76;61.35
38786;BME280;24535;45.508;12.252;2022-10-18T17:10:26;102338.13;;;22.66;62.12
38786;BME280;24535;45.508;12.252;2022-10-18T17:12:52;102347.31;;;22.64;62.12
38786;BME280;24535;45.508;12.252;2022-10-18T17:15:20;102344.91;;;22.61;62.68
38786;BME280;24535;45.508;12.252;2022-10-18T17:17:46;102350.00;;;22.64;62.72
38786;BME280;24535;45.508;12.252;2022-10-18T17:20:22;102344.91;;;22.61;63.09
38786;BME280;24535;45.508;12.252;2022-10-18T17:22:48;102343.34;;;22.58;62.86
38786;BME280;24535;45.508;12.252;2022-10-18T17:25:39;102343.50;;;22.57;63.28
38786;BME280;24535;45.508;12.252;2022-10-18T17:28:31;102345.63;;;22.53;63.17
38786;BME280;24535;45.508;12.252;2022-10-18T17:30:57;102351.97;;;22.52;63.02
38786;BME280;24535;45.508;12.252;2022-10-18T17:33:22;102346.75;;;22.51;63.23
38786;BME280;24535;45.508;12.252;2022-10-18T17:35:48;102352.84;;;22.53;63.18
38786;BME280;24535;45.508;12.252;2022-10-18T17:41:55;102368.81;;;22.44;63.45
38786;BME280;24535;45.508;12.252;2022-10-18T17:44:21;102364.72;;;22.40;63.59
38786;BME280;24535;45.508;12.252;2022-10-18T17:46:47;102367.66;;;22.37;63.78